sensor_id;sensor_type;location;lat;lon;timestamp;P1;durP1;ratioP1;P2;durP2;ratioP2
14734;SDS011;7458;49.002;8.472;2023-04-08T00:00:05;10.38;;;9.32;;
14734;SDS011;7458;49.002;8.472;2023-04-08T00:02:32;9.07;;;7.78;;
14734;SDS011;7458;49.002;8.472;2023-04-08T00:04:58;10.13;;;7.70;;
14734;SDS011;7458;49.002;8.472;2023-04-08T00:07:24;8.57;;;7.35;;
14734;SDS011;7458;49.002;8.472;2023-04-08T00:09:50;10.93;;;8.55;;
14734;SDS011;7458;49.002;8.472;2023-04-08T00:12:16;9.00;;;8.07;;
14734;SDS011;7458;49.002;8.472;2023-04-08T00:14:42;11.18;;;8.45;;
14734;SDS011;7458;49.002;8.472;2023-04-08T00:17:07;10.43;;;8.85;;
14734;SDS011;7458;49.002;8.472;2023-04-08T00:19:33;16.63;;;7.85;;
14734;SDS011;7458;49.002;8.472;2023-04-08T00:21:59;10.13;;;9.13;;
14734;SDS011;7458;49.002;8.472;2023-04-08T00:24:25;10.27;;;9.32;;
14734;SDS011;7458;49.002;8.472;2023-04-08T00:26:51;10.52;;;8.38;;
14734;SDS011;7458;49.002;8.472;2023-04-08T00:29:17;11.90;;;9.30;;
14734;SDS011;7458;49.002;8.472;2023-04-08T00:31:43;13.30;;;9.15;;
14734;SDS011;7458;49.002;8.472;2023-04-08T00:34:08;10.15;;;9.02;;
14734;SDS011;7458;49.002;8.472;2023-04-08T00:36:34;10.90;;;8.05;;
14734;SDS011;7458;49.002;8.472;2023-04-08T00:39:00;10.98;;;9.88;;
14734;SDS011;7458;49.002;8.472;2023-04-08T00:41:28;10.77;;;8.88;;
14734;SDS011;7458;49.002;8.472;2023-04-08T00:43:53;10.70;;;8.68;;
14734;SDS011;7458;49.002;8.472;2023-04-08T00:46:20;10.32;;;9.15;;
14734;SDS011;7458;49.002;8.472;2023-04-08T00:48:46;11.70;;;9.73;;
14734;SDS011;7458;49.002;8.472;2023-04-08T00:51:12;10.52;;;9.43;;
14734;SDS011;7458;49.002;8.472;2023-04-08T00:53:37;11.07;;;9.15;;
14734;SDS011;7458;49.002;8.472;2023-04-08T00:56:04;9.25;;;8.10;;
14734;SDS011;7458;49.002;8.472;2023-04-08T00:58:30;13.55;;;9.82;;
14734;SDS011;7458;49.002;8.472;2023-04-08T01:01:02;9.05;;;8.15;;
14734;SDS011;7458;49.002;8.472;2023-04-08T01:06:45;10.38;;;8.20;;
14734;SDS011;7458;49.002;8.472;2023-04-08T01:09:21;10.45;;;9.10;;
14734;SDS011;7458;49.002;8.472;2023-04-08T01:11:53;8.77;;;7.88;;
14734;SDS011;7458;49.002;8.472;2023-04-08T01:14:22;10.85;;;8.88;;
14734;SDS011;7458;49.002;8.472;2023-04-08T01:16:54;10.45;;;8.95;;
14734;SDS011;7458;49.002;8.472;2023-04-08T01:19:28;13.38;;;8.82;;
14734;SDS011;7458;49.002;8.472;2023-04-08T01:22:14;11.43;;;8.82;;
14734;SDS011;7458;49.002;8.472;2023-04-08T01:24:58;11.02;;;8.77;;
14734;SDS011;7458;49.002;8.472;2023-04-08T01:27:31;10.30;;;8.13;;
14734;SDS011;7458;49.002;8.472;2023-04-08T01:30:00;11.15;;;9.35;;
14734;SDS011;7458;49.002;8.472;2023-04-08T01:32:30;10.95;;;9.30;;
14734;SDS011;7458;49.002;8.472;2023-04-08T01:34:59;12.05;;;9.20;;
14734;SDS011;7458;49.002;8.472;2023-04-08T01:37:27;10.40;;;8.70;;
14734;SDS011;7458;49.002;8.472;2023-04-08T01:39:55;16.05;;;9.75;;
14734;SDS011;7458;49.002;8.472;2023-04-08T01:42:22;14.23;;;9.38;;
14734;SDS011;7458;49.002;8.472;2023-04-08T01:44:51;13.23;;;10.30;;
14734;SDS011;7458;49.002;8.472;2023-04-08T01:47:21;13.02;;;9.45;;
14734;SDS011;7458;49.002;8.472;2023-04-08T01:49:50;12.00;;;8.98;;
14734;SDS011;7458;49.002;8.472;2023-04-08T01:52:17;10.43;;;8.52;;
14734;SDS011;7458;49.002;8.472;2023-04-08T01:54:46;11.00;;;8.82;;
14734;SDS011;7458;49.002;8.472;2023-04-08T02:00:15;12.18;;;8.30;;
14734;SDS011;7458;49.002;8.472;2023-04-08T02:02:45;11.35;;;9.00;;
14734;SDS011;7458;49.002;8.472;2023-04-08T02:05:13;12.85;;;9.07;;
14734;SDS011;7458;49.002;8.472;2023-04-08T02:07:39;11.13;;;8.48;;
14734;SDS011;7458;49.002;8.472;2023-04-08T02:10:05;16.70;;;9.80;;
14734;SDS011;7458;49.002;8.472;2023-04-08T02:12:32;15.82;;;9.93;;
14734;SDS011;7458;49.002;8.472;2023-04-08T02:14:58;10.25;;;8.50;;
14734;SDS011;7458;49.002;8.472;2023-04-08T02:20:04;11.85;;;9.18;;
14734;SDS011;7458;49.002;8.472;2023-04-08T02:25:14;11.93;;;8.30;;
14734;SDS011;7458;49.002;8.472;2023-04-08T02:27:44;12.35;;;8.38;;
14734;SDS011;7458;49.002;8.472;2023-04-08T02:30:12;15.00;;;9.73;;
14734;SDS011;7458;49.002;8.472;2023-04-08T02:32:41;14.35;;;9.32;;
14734;SDS011;7458;49.002;8.472;2023-04-08T02:35:10;18.58;;;10.82;;
14734;SDS011;7458;49.002;8.472;2023-04-08T02:37:38;12.82;;;9.73;;
14734;SDS011;7458;49.002;8.472;2023-04-08T02:40:21;12.85;;;9.95;;
14734;SDS011;7458;49.002;8.472;2023-04-08T02:42:52;11.63;;;10.13;;
14734;SDS011;7458;49.002;8.472;2023-04-08T02:45:19;11.25;;;9.60;;
14734;SDS011;7458;49.002;8.472;2023-04-08T02:47:45;10.75;;;9.52;;
14734;SDS011;7458;49.002;8.472;2023-04-08T02:50:12;11.02;;;9.32;;
14734;SDS011;7458;49.002;8.472;2023-04-08T02:52:38;18.67;;;11.10;;
14734;SDS011;7458;49.002;8.472;2023-04-08T02:55:04;13.55;;;8.23;;
14734;SDS011;7458;49.002;8.472;2023-04-08T02:57:33;12.18;;;9.20;;
14734;SDS011;7458;49.002;8.472;2023-04-08T03:00:01;12.18;;;7.93;;
14734;SDS011;7458;49.002;8.472;2023-04-08T03:02:31;13.48;;;9.52;;
14734;SDS011;7458;49.002;8.472;2023-04-08T03:04:57;14.55;;;9.93;;
14734;SDS011;7458;49.002;8.472;2023-04-08T03:07:23;12.00;;;9.80;;
14734;SDS011;7458;49.002;8.472;2023-04-08T03:09:50;14.88;;;10.13;;
14734;SDS011;7458;49.002;8.472;2023-04-08T03:12:15;13.30;;;9.77;;
14734;SDS011;7458;49.002;8.472;2023-04-08T03:14:42;17.00;;;10.80;;
14734;SDS011;7458;49.002;8.472;2023-04-08T03:17:07;13.00;;;10.02;;
14734;SDS011;7458;49.002;8.472;2023-04-08T03:19:33;20.88;;;9.82;;
14734;SDS011;7458;49.002;8.472;2023-04-08T03:21:59;11.10;;;8.45;;
14734;SDS011;7458;49.002;8.472;2023-04-08T03:24:25;23.42;;;12.05;;
14734;SDS011;7458;49.002;8.472;2023-04-08T03:26:51;13.70;;;10.43;;
14734;SDS011;7458;49.002;8.472;2023-04-08T03:29:16;14.27;;;10.40;;
14734;SDS011;7458;49.002;8.472;2023-04-08T03:31:42;22.02;;;12.73;;
14734;SDS011;7458;49.002;8.472;2023-04-08T03:34:09;15.27;;;10.70;;
14734;SDS011;7458;49.002;8.472;2023-04-08T03:36:35;12.38;;;8.80;;
14734;SDS011;7458;49.002;8.472;2023-04-08T03:39:01;14.57;;;11.15;;
14734;SDS011;7458;49.002;8.472;2023-04-08T03:41:27;25.77;;;11.68;;
14734;SDS011;7458;49.002;8.472;2023-04-08T03:43:54;15.10;;;11.02;;
14734;SDS011;7458;49.002;8.472;2023-04-08T03:46:21;16.52;;;10.50;;
14734;SDS011;7458;49.002;8.472;2023-04-08T03:48:48;14.70;;;10.23;;
14734;SDS011;7458;49.002;8.472;2023-04-08T03:51:13;13.68;;;10.88;;
14734;SDS011;7458;49.002;8.472;2023-04-08T03:53:39;14.93;;;11.25;;
14734;SDS011;7458;49.002;8.472;2023-04-08T03:56:05;13.38;;;10.55;;
14734;SDS011;7458;49.002;8.472;2023-04-08T03:58:31;12.50;;;10.38;;
14734;SDS011;7458;49.002;8.472;2023-04-08T04:00:57;17.33;;;11.43;;
14734;SDS011;7458;49.002;8.472;2023-04-08T04:03:24;13.85;;;10.68;;
14734;SDS011;7458;49.002;8.472;2023-04-08T04:05:50;20.42;;;11.15;;
14734;SDS011;7458;49.002;8.472;2023-04-08T04:08:15;16.13;;;11.68;;
14734;SDS011;7458;49.002;8.472;2023-04-08T04:10:41;20.63;;;12.20;;
14734;SDS011;7458;49.002;8.472;2023-04-08T04:13:07;16.27;;;11.55;;
14734;SDS011;7458;49.002;8.472;2023-04-08T04:15:33;15.73;;;11.98;;
14734;SDS011;7458;49.002;8.472;2023-04-08T04:18:04;16.80;;;11.88;;
14734;SDS011;7458;49.002;8.472;2023-04-08T04:20:30;19.17;;;11.52;;
14734;SDS011;7458;49.002;8.472;2023-04-08T04:22:56;15.05;;;10.55;;
14734;SDS011;7458;49.002;8.472;2023-04-08T04:25:22;14.80;;;12.13;;
14734;SDS011;7458;49.002;8.472;2023-04-08T04:27:48;18.77;;;13.65;;
14734;SDS011;7458;49.002;8.472;2023-04-08T04:30:14;20.95;;;12.00;;
14734;SDS011;7458;49.002;8.472;2023-04-08T04:32:41;17.55;;;12.38;;
14734;SDS011;7458;49.002;8.472;2023-04-08T04:35:10;17.35;;;11.23;;
14734;SDS011;7458;49.002;8.472;2023-04-08T04:37:37;19.20;;;12.68;;
14734;SDS011;7458;49.002;8.472;2023-04-08T04:40:03;17.90;;;12.93;;
14734;SDS011;7458;49.002;8.472;2023-04-08T04:42:31;26.50;;;13.23;;
14734;SDS011;7458;49.002;8.472;2023-04-08T04:44:57;18.17;;;13.80;;
14734;SDS011;7458;49.002;8.472;2023-04-08T04:47:23;21.58;;;14.00;;
14734;SDS011;7458;49.002;8.472;2023-04-08T04:49:49;19.15;;;13.25;;
14734;SDS011;7458;49.002;8.472;2023-04-08T04:52:15;18.10;;;12.65;;
14734;SDS011;7458;49.002;8.472;2023-04-08T04:54:41;19.38;;;14.20;;
14734;SDS011;7458;49.002;8.472;2023-04-08T04:57:07;15.43;;;12.55;;
14734;SDS011;7458;49.002;8.472;2023-04-08T04:59:35;19.95;;;12.43;;
14734;SDS011;7458;49.002;8.472;2023-04-08T05:02:01;20.52;;;13.80;;
14734;SDS011;7458;49.002;8.472;2023-04-08T05:04:27;20.42;;;14.88;;
14734;SDS011;7458;49.002;8.472;2023-04-08T05:06:53;24.27;;;16.27;;
14734;SDS011;7458;49.002;8.472;2023-04-08T05:09:20;18.60;;;14.95;;
14734;SDS011;7458;49.002;8.472;2023-04-08T05:11:45;17.92;;;13.38;;
14734;SDS011;7458;49.002;8.472;2023-04-08T05:14:11;19.25;;;15.45;;
14734;SDS011;7458;49.002;8.472;2023-04-08T05:16:37;22.13;;;16.02;;
14734;SDS011;7458;49.002;8.472;2023-04-08T05:19:03;21.75;;;16.58;;
14734;SDS011;7458;49.002;8.472;2023-04-08T05:21:29;23.58;;;16.05;;
14734;SDS011;7458;49.002;8.472;2023-04-08T05:23:56;21.70;;;16.67;;
14734;SDS011;7458;49.002;8.472;2023-04-08T05:26:22;23.25;;;15.65;;
14734;SDS011;7458;49.002;8.472;2023-04-08T05:28:48;25.33;;;20.48;;
14734;SDS011;7458;49.002;8.472;2023-04-08T05:31:15;21.58;;;15.88;;
14734;SDS011;7458;49.002;8.472;2023-04-08T05:33:45;19.17;;;14.75;;
14734;SDS011;7458;49.002;8.472;2023-04-08T05:36:12;23.80;;;17.25;;
14734;SDS011;7458;49.002;8.472;2023-04-08T05:38:39;22.83;;;15.18;;
14734;SDS011;7458;49.002;8.472;2023-04-08T05:41:07;24.60;;;17.05;;
14734;SDS011;7458;49.002;8.472;2023-04-08T05:43:33;22.35;;;16.33;;
14734;SDS011;7458;49.002;8.472;2023-04-08T05:45:59;25.05;;;16.58;;
14734;SDS011;7458;49.002;8.472;2023-04-08T05:48:24;24.17;;;18.15;;
14734;SDS011;7458;49.002;8.472;2023-04-08T05:50:50;22.45;;;15.05;;
14734;SDS011;7458;49.002;8.472;2023-04-08T05:53:16;25.80;;;16.50;;
14734;SDS011;7458;49.002;8.472;2023-04-08T05:55:42;20.75;;;18.23;;
14734;SDS011;7458;49.002;8.472;2023-04-08T05:58:07;22.73;;;16.60;;
14734;SDS011;7458;49.002;8.472;2023-04-08T06:00:33;24.63;;;16.63;;
14734;SDS011;7458;49.002;8.472;2023-04-08T06:03:00;20.88;;;14.82;;
14734;SDS011;7458;49.002;8.472;2023-04-08T06:05:25;24.85;;;15.38;;
14734;SDS011;7458;49.002;8.472;2023-04-08T06:07:51;25.02;;;16.63;;
14734;SDS011;7458;49.002;8.472;2023-04-08T06:10:17;26.80;;;15.85;;
14734;SDS011;7458;49.002;8.472;2023-04-08T06:12:43;19.08;;;15.50;;
14734;SDS011;7458;49.002;8.472;2023-04-08T06:15:09;22.98;;;15.95;;
14734;SDS011;7458;49.002;8.472;2023-04-08T06:17:36;20.58;;;16.77;;
14734;SDS011;7458;49.002;8.472;2023-04-08T06:20:02;21.08;;;17.05;;
14734;SDS011;7458;49.002;8.472;2023-04-08T06:22:30;21.63;;;16.15;;
14734;SDS011;7458;49.002;8.472;2023-04-08T06:24:56;23.33;;;15.32;;
14734;SDS011;7458;49.002;8.472;2023-04-08T06:27:22;25.67;;;16.00;;
14734;SDS011;7458;49.002;8.472;2023-04-08T06:29:48;25.23;;;16.33;;
14734;SDS011;7458;49.002;8.472;2023-04-08T06:32:13;20.73;;;14.27;;
14734;SDS011;7458;49.002;8.472;2023-04-08T06:34:40;24.02;;;15.57;;
14734;SDS011;7458;49.002;8.472;2023-04-08T06:37:06;21.00;;;15.25;;
14734;SDS011;7458;49.002;8.472;2023-04-08T06:39:32;28.40;;;16.13;;
14734;SDS011;7458;49.002;8.472;2023-04-08T06:41:57;19.70;;;14.80;;
14734;SDS011;7458;49.002;8.472;2023-04-08T06:44:23;18.25;;;14.68;;
14734;SDS011;7458;49.002;8.472;2023-04-08T06:46:49;24.17;;;16.23;;
14734;SDS011;7458;49.002;8.472;2023-04-08T06:49:15;21.52;;;13.75;;
14734;SDS011;7458;49.002;8.472;2023-04-08T06:51:40;21.48;;;15.43;;
14734;SDS011;7458;49.002;8.472;2023-04-08T06:54:06;19.52;;;13.77;;
14734;SDS011;7458;49.002;8.472;2023-04-08T06:56:34;21.10;;;14.25;;
14734;SDS011;7458;49.002;8.472;2023-04-08T06:59:00;18.33;;;13.60;;
14734;SDS011;7458;49.002;8.472;2023-04-08T07:01:27;22.48;;;17.02;;
14734;SDS011;7458;49.002;8.472;2023-04-08T07:03:53;19.75;;;15.52;;
14734;SDS011;7458;49.002;8.472;2023-04-08T07:06:22;18.25;;;14.07;;
14734;SDS011;7458;49.002;8.472;2023-04-08T07:08:47;20.30;;;14.07;;
14734;SDS011;7458;49.002;8.472;2023-04-08T07:11:13;21.27;;;14.05;;
14734;SDS011;7458;49.002;8.472;2023-04-08T07:13:39;20.90;;;14.27;;
14734;SDS011;7458;49.002;8.472;2023-04-08T07:16:05;17.17;;;12.57;;
14734;SDS011;7458;49.002;8.472;2023-04-08T07:18:31;18.05;;;13.02;;
14734;SDS011;7458;49.002;8.472;2023-04-08T07:20:57;16.63;;;11.73;;
14734;SDS011;7458;49.002;8.472;2023-04-08T07:23:24;15.07;;;12.45;;
14734;SDS011;7458;49.002;8.472;2023-04-08T07:25:51;15.73;;;13.57;;
14734;SDS011;7458;49.002;8.472;2023-04-08T07:28:20;17.27;;;13.23;;
14734;SDS011;7458;49.002;8.472;2023-04-08T07:30:46;13.30;;;11.55;;
14734;SDS011;7458;49.002;8.472;2023-04-08T07:33:12;20.25;;;10.88;;
14734;SDS011;7458;49.002;8.472;2023-04-08T07:35:39;13.68;;;10.50;;
14734;SDS011;7458;49.002;8.472;2023-04-08T07:38:06;13.40;;;10.52;;
14734;SDS011;7458;49.002;8.472;2023-04-08T07:40:35;12.85;;;11.10;;
14734;SDS011;7458;49.002;8.472;2023-04-08T07:43:01;14.88;;;12.23;;
14734;SDS011;7458;49.002;8.472;2023-04-08T07:45:27;14.98;;;12.18;;
14734;SDS011;7458;49.002;8.472;2023-04-08T07:47:52;17.13;;;12.02;;
14734;SDS011;7458;49.002;8.472;2023-04-08T07:50:18;14.70;;;10.90;;
14734;SDS011;7458;49.002;8.472;2023-04-08T07:52:44;12.13;;;9.68;;
14734;SDS011;7458;49.002;8.472;2023-04-08T07:55:10;11.43;;;9.30;;
14734;SDS011;7458;49.002;8.472;2023-04-08T07:57:36;11.45;;;10.25;;
14734;SDS011;7458;49.002;8.472;2023-04-08T08:00:02;14.30;;;10.73;;
14734;SDS011;7458;49.002;8.472;2023-04-08T08:02:28;13.23;;;10.82;;
14734;SDS011;7458;49.002;8.472;2023-04-08T08:04:54;13.45;;;9.85;;
14734;SDS011;7458;49.002;8.472;2023-04-08T08:07:20;14.68;;;10.82;;
14734;SDS011;7458;49.002;8.472;2023-04-08T08:09:46;17.23;;;10.48;;
14734;SDS011;7458;49.002;8.472;2023-04-08T08:12:11;14.60;;;10.93;;
14734;SDS011;7458;49.002;8.472;2023-04-08T08:14:37;14.52;;;10.80;;
14734;SDS011;7458;49.002;8.472;2023-04-08T08:17:03;12.98;;;11.60;;
14734;SDS011;7458;49.002;8.472;2023-04-08T08:19:28;14.15;;;10.65;;
14734;SDS011;7458;49.002;8.472;2023-04-08T08:21:54;15.40;;;12.00;;
14734;SDS011;7458;49.002;8.472;2023-04-08T08:24:21;14.90;;;11.75;;
14734;SDS011;7458;49.002;8.472;2023-04-08T08:26:46;15.15;;;12.15;;
14734;SDS011;7458;49.002;8.472;2023-04-08T08:29:13;16.10;;;12.10;;
14734;SDS011;7458;49.002;8.472;2023-04-08T08:31:39;15.48;;;12.32;;
14734;SDS011;7458;49.002;8.472;2023-04-08T08:34:04;16.67;;;12.85;;
14734;SDS011;7458;49.002;8.472;2023-04-08T08:36:30;13.73;;;11.80;;
14734;SDS011;7458;49.002;8.472;2023-04-08T08:38:56;13.75;;;12.45;;
14734;SDS011;7458;49.002;8.472;2023-04-08T08:41:22;12.65;;;11.32;;
14734;SDS011;7458;49.002;8.472;2023-04-08T08:43:47;13.73;;;12.32;;
14734;SDS011;7458;49.002;8.472;2023-04-08T08:46:15;23.15;;;13.65;;
14734;SDS011;7458;49.002;8.472;2023-04-08T08:48:43;17.17;;;12.43;;
14734;SDS011;7458;49.002;8.472;2023-04-08T08:51:10;14.20;;;12.70;;
14734;SDS011;7458;49.002;8.472;2023-04-08T08:53:38;13.75;;;12.25;;
14734;SDS011;7458;49.002;8.472;2023-04-08T08:56:09;13.10;;;11.70;;
14734;SDS011;7458;49.002;8.472;2023-04-08T08:58:35;14.38;;;12.98;;
14734;SDS011;7458;49.002;8.472;2023-04-08T09:01:02;16.52;;;13.88;;
14734;SDS011;7458;49.002;8.472;2023-04-08T09:04:15;16.30;;;14.57;;
14734;SDS011;7458;49.002;8.472;2023-04-08T09:06:46;19.60;;;13.25;;
14734;SDS011;7458;49.002;8.472;2023-04-08T09:09:49;17.33;;;14.80;;
14734;SDS011;7458;49.002;8.472;2023-04-08T09:12:16;13.73;;;12.38;;
14734;SDS011;7458;49.002;8.472;2023-04-08T09:14:42;17.80;;;13.68;;
14734;SDS011;7458;49.002;8.472;2023-04-08T09:17:09;15.25;;;13.68;;
14734;SDS011;7458;49.002;8.472;2023-04-08T09:19:35;13.50;;;11.95;;
14734;SDS011;7458;49.002;8.472;2023-04-08T09:22:08;16.55;;;14.93;;
14734;SDS011;7458;49.002;8.472;2023-04-08T09:24:36;18.63;;;12.02;;
14734;SDS011;7458;49.002;8.472;2023-04-08T09:27:02;13.13;;;10.63;;
14734;SDS011;7458;49.002;8.472;2023-04-08T09:29:29;14.88;;;12.15;;
14734;SDS011;7458;49.002;8.472;2023-04-08T09:31:56;13.60;;;12.20;;
14734;SDS011;7458;49.002;8.472;2023-04-08T09:34:24;12.32;;;11.02;;
14734;SDS011;7458;49.002;8.472;2023-04-08T09:36:52;13.85;;;12.55;;
14734;SDS011;7458;49.002;8.472;2023-04-08T09:39:19;14.48;;;13.05;;
14734;SDS011;7458;49.002;8.472;2023-04-08T09:41:49;16.38;;;12.77;;
14734;SDS011;7458;49.002;8.472;2023-04-08T09:44:17;12.90;;;10.82;;
14734;SDS011;7458;49.002;8.472;2023-04-08T09:49:27;13.93;;;12.73;;
14734;SDS011;7458;49.002;8.472;2023-04-08T09:52:12;12.32;;;11.05;;
14734;SDS011;7458;49.002;8.472;2023-04-08T09:55:22;11.38;;;10.25;;
14734;SDS011;7458;49.002;8.472;2023-04-08T09:57:55;11.60;;;10.43;;
14734;SDS011;7458;49.002;8.472;2023-04-08T10:00:40;12.25;;;11.05;;
14734;SDS011;7458;49.002;8.472;2023-04-08T10:05:55;14.82;;;12.25;;
14734;SDS011;7458;49.002;8.472;2023-04-08T10:08:25;10.90;;;7.95;;
14734;SDS011;7458;49.002;8.472;2023-04-08T10:10:51;13.45;;;10.23;;
14734;SDS011;7458;49.002;8.472;2023-04-08T10:13:20;12.73;;;11.43;;
14734;SDS011;7458;49.002;8.472;2023-04-08T10:15:47;11.57;;;10.38;;
14734;SDS011;7458;49.002;8.472;2023-04-08T10:23:05;13.40;;;11.75;;
14734;SDS011;7458;49.002;8.472;2023-04-08T10:25:33;13.10;;;11.80;;
14734;SDS011;7458;49.002;8.472;2023-04-08T10:33:17;12.50;;;11.30;;
14734;SDS011;7458;49.002;8.472;2023-04-08T10:36:09;13.40;;;11.60;;
14734;SDS011;7458;49.002;8.472;2023-04-08T10:38:36;14.95;;;12.88;;
14734;SDS011;7458;49.002;8.472;2023-04-08T10:41:03;13.73;;;11.85;;
14734;SDS011;7458;49.002;8.472;2023-04-08T10:43:33;14.38;;;11.93;;
14734;SDS011;7458;49.002;8.472;2023-04-08T10:46:00;14.85;;;11.63;;
14734;SDS011;7458;49.002;8.472;2023-04-08T10:48:27;14.68;;;11.43;;
14734;SDS011;7458;49.002;8.472;2023-04-08T10:56:11;17.75;;;12.07;;
14734;SDS011;7458;49.002;8.472;2023-04-08T10:58:47;14.68;;;13.10;;
14734;SDS011;7458;49.002;8.472;2023-04-08T11:01:19;13.55;;;12.15;;
14734;SDS011;7458;49.002;8.472;2023-04-08T11:03:45;13.70;;;12.40;;
14734;SDS011;7458;49.002;8.472;2023-04-08T11:06:10;14.23;;;12.48;;
14734;SDS011;7458;49.002;8.472;2023-04-08T11:08:36;13.25;;;11.80;;
14734;SDS011;7458;49.002;8.472;2023-04-08T11:11:03;17.33;;;13.15;;
14734;SDS011;7458;49.002;8.472;2023-04-08T11:13:33;14.43;;;12.25;;
14734;SDS011;7458;49.002;8.472;2023-04-08T11:16:02;14.35;;;11.43;;
14734;SDS011;7458;49.002;8.472;2023-04-08T11:18:31;14.98;;;13.02;;
14734;SDS011;7458;49.002;8.472;2023-04-08T11:20:59;14.82;;;13.30;;
14734;SDS011;7458;49.002;8.472;2023-04-08T11:23:25;13.70;;;12.30;;
14734;SDS011;7458;49.002;8.472;2023-04-08T11:25:52;13.35;;;12.07;;
14734;SDS011;7458;49.002;8.472;2023-04-08T11:28:18;14.38;;;12.93;;
14734;SDS011;7458;49.002;8.472;2023-04-08T11:30:45;13.43;;;12.02;;
14734;SDS011;7458;49.002;8.472;2023-04-08T11:33:12;14.60;;;12.40;;
14734;SDS011;7458;49.002;8.472;2023-04-08T11:35:41;15.18;;;12.88;;
14734;SDS011;7458;49.002;8.472;2023-04-08T11:38:10;13.77;;;12.00;;
14734;SDS011;7458;49.002;8.472;2023-04-08T11:40:36;12.57;;;11.27;;
14734;SDS011;7458;49.002;8.472;2023-04-08T11:43:09;12.63;;;11.38;;
14734;SDS011;7458;49.002;8.472;2023-04-08T11:45:37;15.02;;;12.05;;
14734;SDS011;7458;49.002;8.472;2023-04-08T11:48:07;14.80;;;11.98;;
14734;SDS011;7458;49.002;8.472;2023-04-08T11:50:38;12.00;;;10.77;;
14734;SDS011;7458;49.002;8.472;2023-04-08T11:53:18;12.82;;;10.82;;
14734;SDS011;7458;49.002;8.472;2023-04-08T11:55:50;15.43;;;12.32;;
14734;SDS011;7458;49.002;8.472;2023-04-08T11:58:16;13.75;;;12.35;;
14734;SDS011;7458;49.002;8.472;2023-04-08T12:00:42;14.52;;;12.32;;
14734;SDS011;7458;49.002;8.472;2023-04-08T12:03:09;14.68;;;12.57;;
14734;SDS011;7458;49.002;8.472;2023-04-08T12:05:37;21.60;;;11.32;;
14734;SDS011;7458;49.002;8.472;2023-04-08T12:08:03;14.05;;;12.63;;
14734;SDS011;7458;49.002;8.472;2023-04-08T12:10:29;13.93;;;12.57;;
14734;SDS011;7458;49.002;8.472;2023-04-08T12:12:55;16.85;;;12.48;;
14734;SDS011;7458;49.002;8.472;2023-04-08T12:15:20;16.10;;;13.10;;
14734;SDS011;7458;49.002;8.472;2023-04-08T12:17:46;13.75;;;12.00;;
14734;SDS011;7458;49.002;8.472;2023-04-08T12:20:12;15.60;;;12.23;;
14734;SDS011;7458;49.002;8.472;2023-04-08T12:22:38;13.82;;;12.43;;
14734;SDS011;7458;49.002;8.472;2023-04-08T12:25:04;12.75;;;11.50;;
14734;SDS011;7458;49.002;8.472;2023-04-08T12:27:30;13.40;;;12.00;;
14734;SDS011;7458;49.002;8.472;2023-04-08T12:30:00;12.75;;;11.60;;
14734;SDS011;7458;49.002;8.472;2023-04-08T12:32:27;13.18;;;11.77;;
14734;SDS011;7458;49.002;8.472;2023-04-08T12:34:53;13.57;;;10.98;;
14734;SDS011;7458;49.002;8.472;2023-04-08T12:37:20;13.88;;;12.13;;
14734;SDS011;7458;49.002;8.472;2023-04-08T12:39:46;13.23;;;11.77;;
14734;SDS011;7458;49.002;8.472;2023-04-08T12:42:11;12.75;;;11.02;;
14734;SDS011;7458;49.002;8.472;2023-04-08T12:44:38;13.75;;;12.30;;
14734;SDS011;7458;49.002;8.472;2023-04-08T12:47:04;13.77;;;12.40;;
14734;SDS011;7458;49.002;8.472;2023-04-08T12:49:30;13.48;;;11.57;;
14734;SDS011;7458;49.002;8.472;2023-04-08T12:51:56;15.40;;;12.18;;
14734;SDS011;7458;49.002;8.472;2023-04-08T12:54:22;14.80;;;11.40;;
14734;SDS011;7458;49.002;8.472;2023-04-08T12:56:48;13.30;;;11.82;;
14734;SDS011;7458;49.002;8.472;2023-04-08T12:59:13;12.77;;;10.63;;
14734;SDS011;7458;49.002;8.472;2023-04-08T13:01:40;15.13;;;13.52;;
14734;SDS011;7458;49.002;8.472;2023-04-08T13:04:06;17.02;;;15.30;;
14734;SDS011;7458;49.002;8.472;2023-04-08T13:06:32;16.52;;;14.75;;
14734;SDS011;7458;49.002;8.472;2023-04-08T13:08:58;17.33;;;13.65;;
14734;SDS011;7458;49.002;8.472;2023-04-08T13:11:23;15.05;;;13.13;;
14734;SDS011;7458;49.002;8.472;2023-04-08T13:13:49;19.67;;;12.65;;
14734;SDS011;7458;49.002;8.472;2023-04-08T13:16:15;15.57;;;13.82;;
14734;SDS011;7458;49.002;8.472;2023-04-08T13:18:41;17.38;;;12.93;;
14734;SDS011;7458;49.002;8.472;2023-04-08T13:21:07;23.98;;;14.05;;
14734;SDS011;7458;49.002;8.472;2023-04-08T13:23:34;16.33;;;12.65;;
14734;SDS011;7458;49.002;8.472;2023-04-08T13:25:59;14.48;;;12.98;;
14734;SDS011;7458;49.002;8.472;2023-04-08T13:28:25;14.95;;;12.10;;
14734;SDS011;7458;49.002;8.472;2023-04-08T13:30:51;13.35;;;12.02;;
14734;SDS011;7458;49.002;8.472;2023-04-08T13:33:17;16.13;;;12.45;;
14734;SDS011;7458;49.002;8.472;2023-04-08T13:35:43;15.88;;;11.23;;
14734;SDS011;7458;49.002;8.472;2023-04-08T13:38:09;17.88;;;10.70;;
14734;SDS011;7458;49.002;8.472;2023-04-08T13:40:35;12.45;;;10.38;;
14734;SDS011;7458;49.002;8.472;2023-04-08T13:43:01;14.27;;;12.05;;
14734;SDS011;7458;49.002;8.472;2023-04-08T13:45:27;12.68;;;10.88;;
14734;SDS011;7458;49.002;8.472;2023-04-08T13:47:53;12.55;;;9.88;;
14734;SDS011;7458;49.002;8.472;2023-04-08T13:50:18;9.73;;;7.20;;
14734;SDS011;7458;49.002;8.472;2023-04-08T13:52:45;11.48;;;9.70;;
14734;SDS011;7458;49.002;8.472;2023-04-08T13:55:10;13.05;;;9.52;;
14734;SDS011;7458;49.002;8.472;2023-04-08T13:57:36;12.98;;;10.32;;
14734;SDS011;7458;49.002;8.472;2023-04-08T14:00:02;19.27;;;9.60;;
14734;SDS011;7458;49.002;8.472;2023-04-08T14:02:29;11.90;;;8.73;;
14734;SDS011;7458;49.002;8.472;2023-04-08T14:04:55;13.63;;;11.13;;
14734;SDS011;7458;49.002;8.472;2023-04-08T14:07:21;9.68;;;8.50;;
14734;SDS011;7458;49.002;8.472;2023-04-08T14:09:47;8.63;;;7.72;;
14734;SDS011;7458;49.002;8.472;2023-04-08T14:12:13;17.58;;;15.65;;
14734;SDS011;7458;49.002;8.472;2023-04-08T14:14:39;25.75;;;16.90;;
14734;SDS011;7458;49.002;8.472;2023-04-08T14:17:05;13.45;;;10.38;;
14734;SDS011;7458;49.002;8.472;2023-04-08T14:19:31;9.70;;;8.80;;
14734;SDS011;7458;49.002;8.472;2023-04-08T14:21:57;9.30;;;8.25;;
14734;SDS011;7458;49.002;8.472;2023-04-08T14:24:22;20.05;;;12.80;;
14734;SDS011;7458;49.002;8.472;2023-04-08T14:26:48;10.27;;;9.23;;
14734;SDS011;7458;49.002;8.472;2023-04-08T14:29:14;28.27;;;16.20;;
14734;SDS011;7458;49.002;8.472;2023-04-08T14:31:40;13.10;;;11.18;;
14734;SDS011;7458;49.002;8.472;2023-04-08T14:34:05;11.95;;;10.73;;
14734;SDS011;7458;49.002;8.472;2023-04-08T14:36:31;12.23;;;10.95;;
14734;SDS011;7458;49.002;8.472;2023-04-08T14:38:57;15.43;;;11.43;;
14734;SDS011;7458;49.002;8.472;2023-04-08T14:41:24;13.70;;;10.02;;
14734;SDS011;7458;49.002;8.472;2023-04-08T14:43:51;12.68;;;9.35;;
14734;SDS011;7458;49.002;8.472;2023-04-08T14:46:18;16.45;;;10.32;;
14734;SDS011;7458;49.002;8.472;2023-04-08T14:48:44;9.65;;;8.73;;
14734;SDS011;7458;49.002;8.472;2023-04-08T14:51:10;11.45;;;9.82;;
14734;SDS011;7458;49.002;8.472;2023-04-08T14:53:36;11.55;;;10.23;;
14734;SDS011;7458;49.002;8.472;2023-04-08T14:56:02;9.38;;;8.25;;
14734;SDS011;7458;49.002;8.472;2023-04-08T14:58:29;16.83;;;8.25;;
14734;SDS011;7458;49.002;8.472;2023-04-08T15:00:55;11.05;;;8.73;;
14734;SDS011;7458;49.002;8.472;2023-04-08T15:03:20;8.68;;;7.75;;
14734;SDS011;7458;49.002;8.472;2023-04-08T15:05:47;9.73;;;8.73;;
14734;SDS011;7458;49.002;8.472;2023-04-08T15:08:13;10.65;;;9.65;;
14734;SDS011;7458;49.002;8.472;2023-04-08T15:10:38;10.27;;;8.88;;